createdAt,value
2023-05-09T00:00:39.865Z,56.92
2023-05-09T00:03:07.746Z,56.44
2023-05-09T00:05:35.634Z,57.24
2023-05-09T00:08:03.706Z,57.32
2023-05-09T00:10:31.576Z,57.80
2023-05-09T00:13:00.477Z,57.69
2023-05-09T00:15:28.924Z,57.12
2023-05-09T00:17:56.800Z,58.12
2023-05-09T00:20:25.165Z,56.57
2023-05-09T00:22:52.998Z,56.13
2023-05-09T00:25:20.835Z,57.19
2023-05-09T00:27:48.677Z,58.39
2023-05-09T00:30:16.492Z,57.55
2023-05-09T00:32:45.218Z,57.99
2023-05-09T00:35:13.492Z,57.97
2023-05-09T00:37:41.551Z,58.24
2023-05-09T00:40:09.790Z,58.16
2023-05-09T00:42:37.995Z,57.94
2023-05-09T00:45:07.147Z,58.79
2023-05-09T00:47:35.620Z,59.90
2023-05-09T00:50:03.862Z,58.92
2023-05-09T00:52:33.306Z,60.83
2023-05-09T00:55:02.604Z,59.94
2023-05-09T00:57:30.628Z,60.07
2023-05-09T00:59:58.675Z,59.28
2023-05-09T01:02:27.437Z,59.84
2023-05-09T01:04:56.039Z,58.59
2023-05-09T01:07:42.184Z,60.33
2023-05-09T01:10:26.539Z,59.53
2023-05-09T01:13:16.118Z,59.33
2023-05-09T01:15:54.163Z,60.06
2023-05-09T01:18:34.806Z,60.49
2023-05-09T01:21:24.178Z,61.55
2023-05-09T01:23:57.639Z,59.49
2023-05-09T01:26:45.859Z,60.12
2023-05-09T01:29:38.035Z,60.88
2023-05-09T01:32:15.676Z,60.03
2023-05-09T01:34:45.210Z,59.62
2023-05-09T01:37:16.395Z,60.12
2023-05-09T01:39:49.921Z,58.92
2023-05-09T01:42:21.810Z,59.26
2023-05-09T01:44:49.994Z,59.13
2023-05-09T01:47:20.002Z,60.46
2023-05-09T01:49:49.506Z,59.30
2023-05-09T01:52:20.126Z,59.12
2023-05-09T01:54:50.896Z,61.54
2023-05-09T01:57:21.919Z,62.08
2023-05-09T01:59:51.565Z,62.36
2023-05-09T02:02:20.456Z,62.35
2023-05-09T02:04:50.154Z,62.16
2023-05-09T02:07:18.555Z,62.04
2023-05-09T02:09:48.428Z,61.90
2023-05-09T02:12:16.939Z,61.98
2023-05-09T02:14:44.858Z,61.38
2023-05-09T02:17:16.980Z,62.66
2023-05-09T02:19:45.065Z,62.54
2023-05-09T02:22:15.092Z,61.92
2023-05-09T02:24:45.155Z,61.27
2023-05-09T02:27:14.808Z,62.23
2023-05-09T02:29:48.324Z,61.88
2023-05-09T02:32:20.950Z,62.43
2023-05-09T02:34:51.345Z,62.21
2023-05-09T02:37:21.007Z,63.03
2023-05-09T02:39:49.041Z,62.53
2023-05-09T02:42:22.413Z,61.28
2023-05-09T02:44:51.065Z,61.45
2023-05-09T02:47:18.931Z,62.21
2023-05-09T02:49:47.202Z,63.44
2023-05-09T02:52:16.122Z,64.30
2023-05-09T02:54:45.613Z,64.42
2023-05-09T02:57:13.468Z,65.70
2023-05-09T02:59:41.353Z,65.84
2023-05-09T03:02:09.226Z,66.35
2023-05-09T03:04:37.579Z,66.02
2023-05-09T03:07:06.263Z,66.96
2023-05-09T03:09:34.838Z,67.45
2023-05-09T03:12:03.872Z,67.79
2023-05-09T03:14:31.796Z,67.93
2023-05-09T03:17:00.297Z,68.70
2023-05-09T03:19:33.840Z,68.51
2023-05-09T03:22:01.717Z,68.45
2023-05-09T03:24:32.025Z,69.05
2023-05-09T03:26:59.858Z,68.32
2023-05-09T03:29:27.985Z,68.02
2023-05-09T03:31:55.928Z,69.18
2023-05-09T03:34:23.891Z,68.52
2023-05-09T03:36:51.703Z,69.84
2023-05-09T03:39:20.570Z,68.78
2023-05-09T03:41:51.456Z,69.29
2023-05-09T03:44:19.311Z,68.69
2023-05-09T03:46:47.233Z,68.24
2023-05-09T03:49:15.704Z,69.80
2023-05-09T03:51:44.509Z,68.70
2023-05-09T03:54:15.989Z,68.24
2023-05-09T03:56:43.821Z,69.12
2023-05-09T03:59:11.726Z,69.36
2023-05-09T04:01:41.997Z,69.58
2023-05-09T04:04:09.964Z,69.67
2023-05-09T04:06:38.127Z,68.90
2023-05-09T04:09:08.214Z,69.88
2023-05-09T04:11:36.071Z,69.23
2023-05-09T04:14:07.324Z,70.36
2023-05-09T04:16:37.117Z,69.91
2023-05-09T04:19:05.068Z,70.06
2023-05-09T04:21:32.958Z,69.49
2023-05-09T04:24:03.042Z,70.81
2023-05-09T04:26:38.602Z,70.31
2023-05-09T04:29:09.423Z,70.52
2023-05-09T04:31:37.606Z,70.20
2023-05-09T04:34:07.267Z,69.79
2023-05-09T04:36:36.928Z,70.29
2023-05-09T04:39:05.349Z,69.83
2023-05-09T04:41:35.147Z,69.91
2023-05-09T04:44:03.339Z,69.53
2023-05-09T04:46:31.369Z,69.03
2023-05-09T04:48:59.384Z,69.27
2023-05-09T04:51:27.551Z,69.11
2023-05-09T04:53:55.690Z,69.67
2023-05-09T04:56:29.011Z,69.30
2023-05-09T04:58:56.891Z,70.77
2023-05-09T05:01:25.066Z,70.65
2023-05-09T05:03:53.246Z,70.05
2023-05-09T05:06:21.148Z,69.78
2023-05-09T05:08:49.002Z,70.28
2023-05-09T05:11:18.132Z,70.12
2023-05-09T05:13:46.546Z,69.96
2023-05-09T05:16:14.641Z,70.13
2023-05-09T05:18:42.987Z,70.56
2023-05-09T05:21:11.108Z,70.61
2023-05-09T05:23:39.100Z,70.96
2023-05-09T05:26:07.096Z,70.99
2023-05-09T05:28:36.592Z,71.39
2023-05-09T05:31:05.387Z,71.69
2023-05-09T05:33:33.761Z,72.22
2023-05-09T05:36:03.014Z,71.48
2023-05-09T05:38:31.165Z,71.61
2023-05-09T05:41:00.386Z,69.95
2023-05-09T05:43:29.578Z,70.15
2023-05-09T05:45:57.854Z,72.17
2023-05-09T05:48:26.874Z,71.37
2023-05-09T05:50:55.466Z,70.57
2023-05-09T05:53:27.120Z,68.61
2023-05-09T05:55:55.445Z,69.38
2023-05-09T05:58:24.589Z,69.13
2023-05-09T06:00:52.960Z,67.86
2023-05-09T06:03:21.237Z,68.42
2023-05-09T06:05:57.838Z,69.15
2023-05-09T06:08:25.821Z,69.43
2023-05-09T06:10:53.701Z,69.15
2023-05-09T06:13:21.727Z,68.46
2023-05-09T06:16:07.780Z,69.06
2023-05-09T06:18:40.246Z,67.83
2023-05-09T06:21:08.195Z,68.42
2023-05-09T06:23:38.030Z,69.95
2023-05-09T06:26:08.430Z,68.30
2023-05-09T06:28:37.224Z,68.12
2023-05-09T06:31:05.110Z,70.13
2023-05-09T06:33:33.243Z,69.93
2023-05-09T06:36:01.080Z,68.13
2023-05-09T06:38:28.969Z,68.80
2023-05-09T06:40:57.332Z,68.08
2023-05-09T06:43:25.611Z,67.69
2023-05-09T06:45:53.764Z,66.90
2023-05-09T06:48:23.871Z,70.43
2023-05-09T06:50:51.902Z,68.38
2023-05-09T06:53:19.734Z,69.53
2023-05-09T06:55:47.911Z,66.39
2023-05-09T06:58:15.748Z,66.68
2023-05-09T07:00:43.640Z,66.91
2023-05-09T07:03:11.747Z,68.26
2023-05-09T07:05:39.694Z,67.20
2023-05-09T07:08:07.749Z,65.33
2023-05-09T07:10:36.047Z,66.41
2023-05-09T07:13:03.924Z,67.08
2023-05-09T07:15:41.521Z,67.52
2023-05-09T07:18:10.441Z,66.58
2023-05-09T07:20:38.337Z,66.16
2023-05-09T07:23:06.353Z,67.90
2023-05-09T07:25:34.354Z,65.13
2023-05-09T07:28:02.200Z,64.62
2023-05-09T07:30:30.249Z,64.85
2023-05-09T07:32:58.209Z,66.29
2023-05-09T07:35:26.427Z,65.66
2023-05-09T07:37:54.703Z,65.11
2023-05-09T07:40:22.791Z,64.45
2023-05-09T07:42:51.605Z,65.87
2023-05-09T07:45:22.002Z,66.54
2023-05-09T07:47:51.531Z,66.21
2023-05-09T07:50:19.505Z,65.72
2023-05-09T07:52:47.321Z,64.24
2023-05-09T07:55:15.440Z,64.43
2023-05-09T07:57:43.412Z,65.17
2023-05-09T08:00:11.863Z,64.73
2023-05-09T08:02:43.399Z,63.63
2023-05-09T08:05:14.291Z,65.04
2023-05-09T08:07:42.314Z,64.49
2023-05-09T08:10:10.402Z,64.75
2023-05-09T08:12:38.475Z,63.87
2023-05-09T08:15:07.151Z,64.34
2023-05-09T08:17:35.423Z,65.03
2023-05-09T08:20:05.588Z,64.41
2023-05-09T08:22:33.764Z,64.51
2023-05-09T08:25:01.621Z,63.71
2023-05-09T08:27:29.515Z,64.00
2023-05-09T08:29:57.839Z,64.14
2023-05-09T08:32:26.477Z,64.18
2023-05-09T08:34:54.645Z,63.02
2023-05-09T08:37:23.037Z,65.19
2023-05-09T08:39:51.506Z,64.22
2023-05-09T08:42:25.500Z,64.09
2023-05-09T08:44:54.145Z,62.93
2023-05-09T08:47:22.980Z,64.19
2023-05-09T08:49:51.445Z,62.55
2023-05-09T08:52:20.317Z,62.61
2023-05-09T08:54:48.296Z,62.60
2023-05-09T08:57:16.344Z,62.33
2023-05-09T08:59:45.528Z,62.14
2023-05-09T09:02:14.683Z,63.75
2023-05-09T09:04:42.965Z,62.99
2023-05-09T09:07:12.465Z,62.74
2023-05-09T09:09:45.786Z,62.65
2023-05-09T09:12:15.922Z,62.80
2023-05-09T09:14:50.353Z,61.07
2023-05-09T09:17:20.910Z,61.45
2023-05-09T09:19:50.374Z,58.85
2023-05-09T09:22:20.061Z,60.41
2023-05-09T09:24:47.984Z,61.67
2023-05-09T09:27:15.855Z,61.29
2023-05-09T09:29:43.694Z,61.33
2023-05-09T09:32:11.568Z,61.10
2023-05-09T09:34:39.534Z,61.16
2023-05-09T09:37:07.985Z,62.16
2023-05-09T09:39:36.010Z,59.58
2023-05-09T09:42:11.866Z,59.36
2023-05-09T09:44:39.927Z,59.76
2023-05-09T09:47:10.639Z,59.83
2023-05-09T09:49:46.945Z,61.92
2023-05-09T09:52:23.203Z,60.97
2023-05-09T09:54:51.073Z,60.40
2023-05-09T09:57:36.271Z,60.54
2023-05-09T10:00:06.146Z,59.33
2023-05-09T10:02:34.337Z,58.92
2023-05-09T10:05:08.587Z,59.26
2023-05-09T10:07:36.588Z,60.82
2023-05-09T10:10:06.196Z,57.16
2023-05-09T10:12:36.849Z,58.60
2023-05-09T10:15:07.621Z,58.92
2023-05-09T10:17:35.810Z,58.85
2023-05-09T10:20:06.230Z,60.47
2023-05-09T10:22:35.075Z,57.00
2023-05-09T10:25:06.632Z,58.41
2023-05-09T10:27:36.659Z,57.24
2023-05-09T10:30:10.408Z,54.67
2023-05-09T10:32:56.192Z,54.77
2023-05-09T10:35:31.280Z,57.01
2023-05-09T10:38:01.912Z,58.11
2023-05-09T10:40:32.046Z,55.58
2023-05-09T10:42:59.943Z,57.35
2023-05-09T10:45:28.256Z,56.72
2023-05-09T10:47:56.973Z,57.75
2023-05-09T10:50:26.090Z,57.30
2023-05-09T10:53:03.814Z,55.87
2023-05-09T10:55:39.337Z,54.93
2023-05-09T10:58:30.068Z,56.13
2023-05-09T11:01:00.299Z,54.89
2023-05-09T11:03:30.621Z,56.76
2023-05-09T11:05:58.923Z,54.45
2023-05-09T11:08:33.229Z,54.71
2023-05-09T11:11:07.458Z,55.80
2023-05-09T11:13:40.186Z,56.23
2023-05-09T11:16:09.662Z,53.79
2023-05-09T11:18:51.985Z,52.95
2023-05-09T11:21:20.979Z,54.14
2023-05-09T11:23:49.871Z,54.73
2023-05-09T11:26:22.405Z,53.80
2023-05-09T11:28:54.212Z,51.92
2023-05-09T11:31:22.474Z,50.53
2023-05-09T11:33:56.345Z,51.54
2023-05-09T11:36:29.351Z,51.43
2023-05-09T11:39:24.637Z,52.04
2023-05-09T11:41:53.529Z,48.29
2023-05-09T11:44:21.699Z,48.10
2023-05-09T11:46:49.769Z,48.06
2023-05-09T11:49:19.692Z,45.03
2023-05-09T11:51:47.561Z,44.93
2023-05-09T11:54:16.299Z,47.76
2023-05-09T11:56:45.144Z,48.94
2023-05-09T11:59:14.745Z,46.51
2023-05-09T12:01:42.675Z,47.77
2023-05-09T12:04:10.679Z,48.16
2023-05-09T12:06:38.581Z,44.46
2023-05-09T12:09:06.674Z,46.66
2023-05-09T12:11:36.721Z,47.39
2023-05-09T12:14:05.447Z,46.12
2023-05-09T12:16:33.395Z,48.28
2023-05-09T12:19:01.249Z,46.65
2023-05-09T12:21:29.708Z,47.52
2023-05-09T12:23:57.708Z,47.37
2023-05-09T12:26:25.747Z,50.09
2023-05-09T12:28:54.295Z,47.56
2023-05-09T12:31:22.714Z,47.09
2023-05-09T12:33:50.880Z,49.52
2023-05-09T12:36:18.796Z,46.09
2023-05-09T12:38:56.393Z,45.98
2023-05-09T12:43:56.013Z,47.17
2023-05-09T12:46:24.374Z,48.04
2023-05-09T12:48:52.357Z,45.90
2023-05-09T12:51:22.039Z,46.99
2023-05-09T12:53:50.547Z,47.70
2023-05-09T12:56:20.358Z,46.04
2023-05-09T12:58:52.468Z,47.51
2023-05-09T13:01:23.093Z,46.44
2023-05-09T13:03:52.666Z,47.36
2023-05-09T13:06:21.143Z,45.63
2023-05-09T13:09:05.768Z,44.71
2023-05-09T13:11:33.719Z,43.98
2023-05-09T13:14:04.147Z,43.58
2023-05-09T13:16:32.202Z,43.86
2023-05-09T13:19:01.621Z,47.51
2023-05-09T13:21:29.557Z,45.65
2023-05-09T13:23:57.420Z,45.97
2023-05-09T13:26:25.948Z,47.00
2023-05-09T13:28:54.297Z,46.91
2023-05-09T13:31:22.803Z,48.06
2023-05-09T13:33:52.071Z,48.10
2023-05-09T13:36:20.657Z,47.23
2023-05-09T13:38:48.803Z,44.97
2023-05-09T13:41:20.865Z,46.43
2023-05-09T13:43:48.822Z,46.72
2023-05-09T13:46:16.779Z,48.01
2023-05-09T13:48:44.886Z,46.64
2023-05-09T13:51:13.965Z,46.29
2023-05-09T13:53:42.531Z,44.03
2023-05-09T13:56:10.694Z,45.65
2023-05-09T13:58:38.644Z,43.83
2023-05-09T14:01:07.651Z,45.07
2023-05-09T14:03:35.835Z,46.61
2023-05-09T14:06:04.361Z,45.89
2023-05-09T14:08:33.134Z,47.89
2023-05-09T14:11:01.615Z,45.75
2023-05-09T14:13:31.852Z,47.11
2023-05-09T14:15:59.857Z,46.35
2023-05-09T14:18:27.890Z,45.62
2023-05-09T14:20:56.386Z,47.49
2023-05-09T14:23:24.451Z,46.93
2023-05-09T14:25:52.392Z,46.55
2023-05-09T14:28:20.264Z,45.13
2023-05-09T14:30:48.202Z,44.69
2023-05-09T14:33:16.007Z,44.47
2023-05-09T14:35:43.908Z,42.89
2023-05-09T14:38:13.180Z,45.01
2023-05-09T14:40:41.048Z,43.00
2023-05-09T14:43:09.587Z,44.59
2023-05-09T14:45:37.651Z,42.91
2023-05-09T14:48:06.262Z,45.14
2023-05-09T14:50:34.190Z,45.79
2023-05-09T14:53:02.104Z,45.77
2023-05-09T14:55:31.246Z,45.14
2023-05-09T14:57:59.420Z,46.01
2023-05-09T15:00:28.488Z,45.33
2023-05-09T15:02:56.904Z,45.14
2023-05-09T15:05:25.235Z,47.13
2023-05-09T15:07:53.056Z,46.04
2023-05-09T15:10:21.016Z,45.32
2023-05-09T15:12:48.911Z,46.95
2023-05-09T15:15:19.939Z,47.04
2023-05-09T15:17:48.069Z,46.33
2023-05-09T15:20:18.311Z,46.16
2023-05-09T15:22:50.176Z,46.20
2023-05-09T15:25:18.187Z,45.55
2023-05-09T15:27:46.247Z,47.00
2023-05-09T15:30:14.534Z,46.72
2023-05-09T15:32:42.904Z,45.35
2023-05-09T15:35:10.843Z,47.63
2023-05-09T15:37:38.656Z,47.02
2023-05-09T15:40:07.948Z,47.12
2023-05-09T15:42:36.458Z,47.53
2023-05-09T15:45:04.529Z,45.66
2023-05-09T15:47:32.827Z,46.22
2023-05-09T15:50:00.910Z,48.10
2023-05-09T15:52:29.176Z,47.94
2023-05-09T15:54:57.434Z,47.75
2023-05-09T15:57:25.815Z,47.64
2023-05-09T15:59:56.165Z,48.09
2023-05-09T16:02:24.721Z,47.62
2023-05-09T16:04:52.703Z,48.18
2023-05-09T16:07:20.730Z,48.04
2023-05-09T16:09:49.198Z,46.76
2023-05-09T16:12:17.405Z,47.80
2023-05-09T16:14:45.477Z,46.27
2023-05-09T16:17:13.456Z,45.77
2023-05-09T16:19:41.383Z,47.29
2023-05-09T16:22:09.306Z,47.24
2023-05-09T16:24:37.709Z,47.24
2023-05-09T16:27:05.804Z,46.62
2023-05-09T16:29:33.620Z,46.38
2023-05-09T16:32:01.926Z,47.02
2023-05-09T16:34:30.033Z,46.84
2023-05-09T16:36:57.868Z,47.00
2023-05-09T16:39:28.014Z,46.37
2023-05-09T16:41:57.261Z,46.79
2023-05-09T16:44:25.870Z,47.21
2023-05-09T16:46:53.894Z,46.57
2023-05-09T16:49:22.040Z,48.21
2023-05-09T16:51:49.950Z,46.93
2023-05-09T16:54:17.832Z,48.03
2023-05-09T16:56:45.699Z,47.21
2023-05-09T16:59:13.578Z,49.24
2023-05-09T17:01:42.409Z,50.04
2023-05-09T17:04:10.396Z,48.71
2023-05-09T17:06:38.452Z,47.46
2023-05-09T17:09:06.387Z,49.16
2023-05-09T17:11:34.485Z,49.33
2023-05-09T17:14:03.347Z,48.67
2023-05-09T17:16:31.322Z,47.27
2023-05-09T17:18:59.234Z,46.67
2023-05-09T17:21:27.152Z,47.46
2023-05-09T17:23:55.306Z,47.94
2023-05-09T17:26:23.202Z,47.16
2023-05-09T17:28:51.408Z,48.57
2023-05-09T17:31:19.292Z,47.92
2023-05-09T17:33:47.189Z,49.33
2023-05-09T17:36:15.053Z,47.96
2023-05-09T17:38:43.216Z,48.41
2023-05-09T17:41:11.058Z,49.40
2023-05-09T17:43:39.380Z,48.87
2023-05-09T17:46:08.062Z,48.72
2023-05-09T17:48:36.008Z,49.60
2023-05-09T17:51:04.098Z,48.87
2023-05-09T17:53:32.422Z,49.57
2023-05-09T17:56:00.308Z,49.98
2023-05-09T17:58:28.226Z,50.41
2023-05-09T18:00:58.564Z,49.35
2023-05-09T18:03:29.433Z,50.31
2023-05-09T18:05:57.833Z,50.22
2023-05-09T18:08:26.423Z,49.89
2023-05-09T18:10:57.389Z,49.13
2023-05-09T18:13:25.395Z,50.03
2023-05-09T18:15:55.104Z,50.83
2023-05-09T18:18:23.104Z,50.14
2023-05-09T18:20:51.012Z,49.59
2023-05-09T18:23:18.899Z,50.66
2023-05-09T18:25:46.866Z,50.91
2023-05-09T18:28:14.994Z,51.18
2023-05-09T18:30:42.831Z,50.96
2023-05-09T18:33:10.639Z,51.34
2023-05-09T18:35:38.536Z,50.49
2023-05-09T18:38:06.436Z,50.82
2023-05-09T18:40:34.325Z,51.95
2023-05-09T18:43:02.244Z,52.04
2023-05-09T18:45:30.815Z,52.09
2023-05-09T18:47:59.075Z,51.84
2023-05-09T18:50:27.155Z,52.66
2023-05-09T18:52:55.321Z,52.85
2023-05-09T18:55:23.308Z,53.45
2023-05-09T18:57:51.236Z,52.89
2023-05-09T19:00:19.140Z,52.62
2023-05-09T19:02:47.064Z,52.81
2023-05-09T19:05:14.913Z,53.14
2023-05-09T19:07:42.746Z,53.40
2023-05-09T19:10:11.210Z,53.94
2023-05-09T19:12:39.120Z,54.03
2023-05-09T19:15:07.646Z,53.61
2023-05-09T19:17:35.566Z,53.37
2023-05-09T19:20:03.995Z,54.23
2023-05-09T19:22:32.212Z,54.40
2023-05-09T19:25:00.180Z,54.90
2023-05-09T19:27:31.200Z,54.83
2023-05-09T19:29:59.500Z,54.73
2023-05-09T19:32:27.388Z,55.16
2023-05-09T19:34:55.244Z,54.97
2023-05-09T19:37:23.387Z,55.82
2023-05-09T19:39:51.245Z,56.46
2023-05-09T19:42:19.172Z,55.53
2023-05-09T19:44:47.342Z,55.80
2023-05-09T19:47:15.182Z,56.65
2023-05-09T19:49:43.085Z,55.70
2023-05-09T19:52:11.132Z,56.22
2023-05-09T19:54:39.043Z,57.21
2023-05-09T19:57:07.096Z,56.41
2023-05-09T19:59:35.045Z,56.17
2023-05-09T20:02:02.983Z,57.07
2023-05-09T20:04:35.010Z,57.27
2023-05-09T20:07:04.027Z,56.48
2023-05-09T20:09:32.967Z,55.83
2023-05-09T20:12:02.857Z,57.28
2023-05-09T20:14:31.784Z,57.74
2023-05-09T20:16:59.748Z,57.56
2023-05-09T20:19:27.869Z,57.71
2023-05-09T20:21:56.004Z,57.48
2023-05-09T20:24:23.968Z,57.16
2023-05-09T20:26:52.149Z,57.68
2023-05-09T20:29:20.058Z,56.14
2023-05-09T20:31:48.106Z,57.19
2023-05-09T20:34:18.009Z,56.70
2023-05-09T20:36:48.457Z,57.23
2023-05-09T20:39:17.749Z,56.42
2023-05-09T20:41:49.573Z,57.36
2023-05-09T20:44:18.067Z,57.04
2023-05-09T20:46:46.283Z,57.33
2023-05-09T20:49:15.455Z,57.63
2023-05-09T20:51:43.314Z,57.67
2023-05-09T20:54:11.198Z,57.94
2023-05-09T20:56:39.158Z,57.27
2023-05-09T20:59:06.999Z,57.29
2023-05-09T21:01:36.902Z,57.26
2023-05-09T21:04:05.895Z,57.46
2023-05-09T21:06:35.992Z,58.00
2023-05-09T21:09:05.459Z,57.19
2023-05-09T21:11:33.348Z,57.26
2023-05-09T21:14:01.223Z,57.17
2023-05-09T21:16:29.546Z,57.62
2023-05-09T21:18:59.629Z,57.77
2023-05-09T21:21:27.494Z,57.21
2023-05-09T21:23:55.404Z,57.36
2023-05-09T21:26:23.310Z,57.58
2023-05-09T21:28:51.148Z,57.68
2023-05-09T21:31:19.075Z,57.29
2023-05-09T21:33:46.946Z,58.17
2023-05-09T21:36:14.833Z,58.47
2023-05-09T21:38:42.748Z,57.45
2023-05-09T21:41:10.608Z,58.87
2023-05-09T21:43:38.692Z,58.39
2023-05-09T21:46:06.659Z,58.84
2023-05-09T21:48:34.610Z,58.96
2023-05-09T21:51:08.306Z,58.48
2023-05-09T21:53:36.314Z,58.53
2023-05-09T21:56:04.543Z,59.24
2023-05-09T21:58:32.460Z,58.97
2023-05-09T22:01:00.313Z,58.84
2023-05-09T22:03:28.230Z,59.04
2023-05-09T22:05:56.275Z,59.55
2023-05-09T22:08:24.136Z,59.51
2023-05-09T22:10:51.977Z,59.40
2023-05-09T22:13:19.977Z,58.74
2023-05-09T22:15:47.819Z,58.84
2023-05-09T22:18:15.627Z,59.25
2023-05-09T22:20:43.626Z,59.82
2023-05-09T22:23:11.496Z,59.15
2023-05-09T22:25:39.355Z,59.84
2023-05-09T22:28:07.218Z,59.14
2023-05-09T22:30:35.093Z,59.75
2023-05-09T22:33:03.038Z,58.90
2023-05-09T22:35:31.017Z,59.01
2023-05-09T22:37:58.851Z,59.90
2023-05-09T22:40:26.869Z,59.72
2023-05-09T22:42:54.925Z,59.55
2023-05-09T22:45:23.121Z,59.67
2023-05-09T22:47:50.994Z,59.81
2023-05-09T22:50:19.065Z,60.71
2023-05-09T22:52:47.089Z,59.60
2023-05-09T22:55:14.991Z,59.79
2023-05-09T22:57:42.898Z,60.51
2023-05-09T23:00:11.715Z,58.85
2023-05-09T23:02:39.711Z,59.44
2023-05-09T23:05:08.770Z,58.90
2023-05-09T23:07:36.678Z,58.86
2023-05-09T23:10:05.001Z,58.87
2023-05-09T23:12:33.102Z,59.76
2023-05-09T23:15:01.069Z,59.85
2023-05-09T23:17:29.059Z,59.97
2023-05-09T23:19:56.934Z,58.63
2023-05-09T23:22:24.751Z,60.12
2023-05-09T23:24:52.544Z,58.77
2023-05-09T23:27:20.400Z,59.62
2023-05-09T23:29:48.718Z,59.66
2023-05-09T23:32:16.733Z,58.85
2023-05-09T23:34:44.553Z,59.06
2023-05-09T23:37:12.611Z,59.34
2023-05-09T23:39:40.763Z,60.13
2023-05-09T23:42:08.681Z,58.94
2023-05-09T23:44:36.562Z,58.20
2023-05-09T23:47:04.421Z,59.22
2023-05-09T23:49:32.277Z,58.60
2023-05-09T23:52:00.130Z,58.61
2023-05-09T23:54:28.668Z,59.21
2023-05-09T23:56:57.327Z,59.91
2023-05-09T23:59:25.265Z,58.85
